SCIE 231500Z 20011KT CAVOK 10/M01 Q1022